sensor_id;sensor_type;location;lat;lon;timestamp;temperature;humidity
6696;DHT22;3385;48.928;10.330;2022-11-04T00:01:39;9.50;99.90
6696;DHT22;3385;48.928;10.330;2022-11-04T00:04:05;9.60;99.90
6696;DHT22;3385;48.928;10.330;2022-11-04T00:06:31;9.50;99.90
6696;DHT22;3385;48.928;10.330;2022-11-04T00:08:58;9.40;99.90
6696;DHT22;3385;48.928;10.330;2022-11-04T00:11:25;9.40;99.90
6696;DHT22;3385;48.928;10.330;2022-11-04T00:14:18;9.30;99.90
6696;DHT22;3385;48.928;10.330;2022-11-04T00:16:44;9.50;99.90
6696;DHT22;3385;48.928;10.330;2022-11-04T00:19:29;9.20;99.90
6696;DHT22;3385;48.928;10.330;2022-11-04T00:22:15;9.20;99.90
6696;DHT22;3385;48.928;10.330;2022-11-04T00:25:00;9.20;99.90
6696;DHT22;3385;48.928;10.330;2022-11-04T00:27:44;9.20;99.90
6696;DHT22;3385;48.928;10.330;2022-11-04T00:30:28;9.20;99.90
6696;DHT22;3385;48.928;10.330;2022-11-04T00:32:54;9.10;99.90
6696;DHT22;3385;48.928;10.330;2022-11-04T00:35:39;9.10;99.90
6696;DHT22;3385;48.928;10.330;2022-11-04T00:38:04;9.00;99.90
6696;DHT22;3385;48.928;10.330;2022-11-04T00:40:30;9.00;99.90
6696;DHT22;3385;48.928;10.330;2022-11-04T00:42:56;9.00;99.90
6696;DHT22;3385;48.928;10.330;2022-11-04T00:45:22;8.90;99.90
6696;DHT22;3385;48.928;10.330;2022-11-04T00:47:47;8.90;99.90
6696;DHT22;3385;48.928;10.330;2022-11-04T00:50:14;8.90;99.90
6696;DHT22;3385;48.928;10.330;2022-11-04T00:52:39;8.90;99.90
6696;DHT22;3385;48.928;10.330;2022-11-04T00:55:06;8.80;99.90
6696;DHT22;3385;48.928;10.330;2022-11-04T00:57:31;8.80;99.90
6696;DHT22;3385;48.928;10.330;2022-11-04T00:59:57;8.80;99.90
6696;DHT22;3385;48.928;10.330;2022-11-04T01:02:23;8.80;99.90
6696;DHT22;3385;48.928;10.330;2022-11-04T01:04:49;8.70;99.90
6696;DHT22;3385;48.928;10.330;2022-11-04T01:07:14;8.80;99.90
6696;DHT22;3385;48.928;10.330;2022-11-04T01:09:40;8.80;99.90
6696;DHT22;3385;48.928;10.330;2022-11-04T01:12:06;8.80;99.90
6696;DHT22;3385;48.928;10.330;2022-11-04T01:14:32;8.80;99.90
6696;DHT22;3385;48.928;10.330;2022-11-04T01:16:58;8.90;99.90
6696;DHT22;3385;48.928;10.330;2022-11-04T01:19:23;8.90;99.90
6696;DHT22;3385;48.928;10.330;2022-11-04T01:21:50;8.90;99.90
6696;DHT22;3385;48.928;10.330;2022-11-04T01:24:17;8.90;99.90
6696;DHT22;3385;48.928;10.330;2022-11-04T01:26:43;8.90;99.90
6696;DHT22;3385;48.928;10.330;2022-11-04T01:29:09;8.90;99.90
6696;DHT22;3385;48.928;10.330;2022-11-04T01:31:34;8.90;99.90
6696;DHT22;3385;48.928;10.330;2022-11-04T01:34:00;8.90;99.90
6696;DHT22;3385;48.928;10.330;2022-11-04T01:36:26;8.90;99.90
6696;DHT22;3385;48.928;10.330;2022-11-04T01:38:54;8.90;99.90
6696;DHT22;3385;48.928;10.330;2022-11-04T01:41:27;8.90;99.90
6696;DHT22;3385;48.928;10.330;2022-11-04T01:46:46;8.80;99.90
6696;DHT22;3385;48.928;10.330;2022-11-04T01:49:35;8.80;99.90
6696;DHT22;3385;48.928;10.330;2022-11-04T01:52:14;8.80;99.90
6696;DHT22;3385;48.928;10.330;2022-11-04T01:54:42;8.80;99.90
6696;DHT22;3385;48.928;10.330;2022-11-04T01:57:15;8.80;99.90
6696;DHT22;3385;48.928;10.330;2022-11-04T01:59:42;8.80;99.90
6696;DHT22;3385;48.928;10.330;2022-11-04T02:02:08;8.80;99.90
6696;DHT22;3385;48.928;10.330;2022-11-04T02:04:35;8.80;99.90
6696;DHT22;3385;48.928;10.330;2022-11-04T02:07:03;8.70;99.90
6696;DHT22;3385;48.928;10.330;2022-11-04T02:09:33;8.70;99.90
6696;DHT22;3385;48.928;10.330;2022-11-04T02:11:59;8.70;99.90
6696;DHT22;3385;48.928;10.330;2022-11-04T02:14:45;8.70;99.90
6696;DHT22;3385;48.928;10.330;2022-11-04T02:23:11;8.60;99.90
6696;DHT22;3385;48.928;10.330;2022-11-04T02:33:51;8.70;99.90
6696;DHT22;3385;48.928;10.330;2022-11-04T02:36:43;8.70;99.90
6696;DHT22;3385;48.928;10.330;2022-11-04T02:42:00;8.70;99.90
6696;DHT22;3385;48.928;10.330;2022-11-04T02:44:30;8.70;99.90
6696;DHT22;3385;48.928;10.330;2022-11-04T02:47:06;8.70;99.90
6696;DHT22;3385;48.928;10.330;2022-11-04T02:49:57;8.70;99.90
6696;DHT22;3385;48.928;10.330;2022-11-04T02:52:32;8.70;99.90
6696;DHT22;3385;48.928;10.330;2022-11-04T02:55:44;8.70;99.90
6696;DHT22;3385;48.928;10.330;2022-11-04T02:58:14;8.80;99.90
6696;DHT22;3385;48.928;10.330;2022-11-04T03:00:43;8.80;99.90
6696;DHT22;3385;48.928;10.330;2022-11-04T03:03:20;8.70;99.90
6696;DHT22;3385;48.928;10.330;2022-11-04T03:05:50;8.80;99.90
6696;DHT22;3385;48.928;10.330;2022-11-04T03:08:30;8.70;99.90
6696;DHT22;3385;48.928;10.330;2022-11-04T03:11:02;8.70;99.90
6696;DHT22;3385;48.928;10.330;2022-11-04T03:13:38;8.80;99.90
6696;DHT22;3385;48.928;10.330;2022-11-04T03:16:09;8.70;99.90
6696;DHT22;3385;48.928;10.330;2022-11-04T03:21:09;8.60;99.90
6696;DHT22;3385;48.928;10.330;2022-11-04T03:23:37;8.60;99.90
6696;DHT22;3385;48.928;10.330;2022-11-04T03:26:12;8.60;99.90
6696;DHT22;3385;48.928;10.330;2022-11-04T03:29:08;8.60;99.90
6696;DHT22;3385;48.928;10.330;2022-11-04T03:32:30;8.60;99.90
6696;DHT22;3385;48.928;10.330;2022-11-04T03:34:36;8.60;99.90
6696;DHT22;3385;48.928;10.330;2022-11-04T03:37:02;8.50;99.90
6696;DHT22;3385;48.928;10.330;2022-11-04T03:39:28;8.50;99.90
6696;DHT22;3385;48.928;10.330;2022-11-04T03:41:56;8.40;99.90
6696;DHT22;3385;48.928;10.330;2022-11-04T03:44:23;8.40;99.90
6696;DHT22;3385;48.928;10.330;2022-11-04T03:46:52;8.40;99.90
6696;DHT22;3385;48.928;10.330;2022-11-04T03:49:22;8.30;99.90
6696;DHT22;3385;48.928;10.330;2022-11-04T03:51:52;8.30;99.90
6696;DHT22;3385;48.928;10.330;2022-11-04T03:54:18;8.20;99.90
6696;DHT22;3385;48.928;10.330;2022-11-04T03:59:39;8.10;99.90
6696;DHT22;3385;48.928;10.330;2022-11-04T04:05:11;8.10;99.90
6696;DHT22;3385;48.928;10.330;2022-11-04T04:07:48;8.10;99.90
6696;DHT22;3385;48.928;10.330;2022-11-04T04:10:25;8.10;99.90
6696;DHT22;3385;48.928;10.330;2022-11-04T04:16:21;8.00;99.90
6696;DHT22;3385;48.928;10.330;2022-11-04T04:21:43;8.00;99.90
6696;DHT22;3385;48.928;10.330;2022-11-04T04:24:11;8.00;99.90
6696;DHT22;3385;48.928;10.330;2022-11-04T04:26:57;8.00;99.90
6696;DHT22;3385;48.928;10.330;2022-11-04T04:29:43;8.00;99.90
6696;DHT22;3385;48.928;10.330;2022-11-04T04:32:10;8.00;99.90
6696;DHT22;3385;48.928;10.330;2022-11-04T04:34:36;7.90;99.90
6696;DHT22;3385;48.928;10.330;2022-11-04T04:37:22;7.90;99.90
6696;DHT22;3385;48.928;10.330;2022-11-04T04:39:57;7.90;99.90
6696;DHT22;3385;48.928;10.330;2022-11-04T04:42:43;7.90;99.90
6696;DHT22;3385;48.928;10.330;2022-11-04T04:45:31;7.90;99.90
6696;DHT22;3385;48.928;10.330;2022-11-04T04:47:58;7.90;99.90
6696;DHT22;3385;48.928;10.330;2022-11-04T04:50:27;7.80;99.90
6696;DHT22;3385;48.928;10.330;2022-11-04T04:52:56;7.80;99.90
6696;DHT22;3385;48.928;10.330;2022-11-04T04:55:24;7.80;99.90
6696;DHT22;3385;48.928;10.330;2022-11-04T04:57:49;7.70;99.90
6696;DHT22;3385;48.928;10.330;2022-11-04T05:00:18;7.70;99.90
6696;DHT22;3385;48.928;10.330;2022-11-04T05:02:44;7.70;99.90
6696;DHT22;3385;48.928;10.330;2022-11-04T05:05:12;7.70;99.90
6696;DHT22;3385;48.928;10.330;2022-11-04T05:07:42;7.60;99.90
6696;DHT22;3385;48.928;10.330;2022-11-04T05:10:10;7.60;99.90
6696;DHT22;3385;48.928;10.330;2022-11-04T05:12:37;7.60;99.90
6696;DHT22;3385;48.928;10.330;2022-11-04T05:15:23;7.50;99.90
6696;DHT22;3385;48.928;10.330;2022-11-04T05:17:53;7.50;99.90
6696;DHT22;3385;48.928;10.330;2022-11-04T05:20:19;7.50;99.90
6696;DHT22;3385;48.928;10.330;2022-11-04T05:22:45;7.50;99.90
6696;DHT22;3385;48.928;10.330;2022-11-04T05:25:10;7.40;99.90
6696;DHT22;3385;48.928;10.330;2022-11-04T05:27:36;7.40;99.90
6696;DHT22;3385;48.928;10.330;2022-11-04T05:30:02;7.40;99.90
6696;DHT22;3385;48.928;10.330;2022-11-04T05:32:31;7.50;99.90
6696;DHT22;3385;48.928;10.330;2022-11-04T05:34:57;7.50;99.90
6696;DHT22;3385;48.928;10.330;2022-11-04T05:37:23;7.40;99.90
6696;DHT22;3385;48.928;10.330;2022-11-04T05:39:49;7.40;99.90
6696;DHT22;3385;48.928;10.330;2022-11-04T05:42:15;7.40;99.90
6696;DHT22;3385;48.928;10.330;2022-11-04T05:44:40;7.40;99.90
6696;DHT22;3385;48.928;10.330;2022-11-04T05:47:06;7.30;99.90
6696;DHT22;3385;48.928;10.330;2022-11-04T05:49:32;7.30;99.90
6696;DHT22;3385;48.928;10.330;2022-11-04T05:51:58;7.30;99.90
6696;DHT22;3385;48.928;10.330;2022-11-04T05:54:25;7.30;99.90
6696;DHT22;3385;48.928;10.330;2022-11-04T05:56:52;7.30;99.90
6696;DHT22;3385;48.928;10.330;2022-11-04T05:59:18;7.30;99.90
6696;DHT22;3385;48.928;10.330;2022-11-04T06:01:43;7.30;99.90
6696;DHT22;3385;48.928;10.330;2022-11-04T06:04:15;7.30;99.90
6696;DHT22;3385;48.928;10.330;2022-11-04T06:06:41;7.10;99.90
6696;DHT22;3385;48.928;10.330;2022-11-04T06:09:07;7.10;99.90
6696;DHT22;3385;48.928;10.330;2022-11-04T06:11:34;7.10;99.90
6696;DHT22;3385;48.928;10.330;2022-11-04T06:14:03;7.20;99.90
6696;DHT22;3385;48.928;10.330;2022-11-04T06:16:29;7.20;99.90
6696;DHT22;3385;48.928;10.330;2022-11-04T06:18:55;7.20;99.90
6696;DHT22;3385;48.928;10.330;2022-11-04T06:21:27;7.20;99.90
6696;DHT22;3385;48.928;10.330;2022-11-04T06:23:54;7.10;99.90
6696;DHT22;3385;48.928;10.330;2022-11-04T06:26:27;7.10;99.90
6696;DHT22;3385;48.928;10.330;2022-11-04T06:28:53;7.10;99.90
6696;DHT22;3385;48.928;10.330;2022-11-04T06:31:19;7.10;99.90
6696;DHT22;3385;48.928;10.330;2022-11-04T06:33:45;7.10;99.90
6696;DHT22;3385;48.928;10.330;2022-11-04T06:36:14;7.10;99.90
6696;DHT22;3385;48.928;10.330;2022-11-04T06:38:41;7.10;99.90
6696;DHT22;3385;48.928;10.330;2022-11-04T06:41:10;7.10;99.90
6696;DHT22;3385;48.928;10.330;2022-11-04T06:43:36;7.10;99.90
6696;DHT22;3385;48.928;10.330;2022-11-04T06:46:02;7.10;99.90
6696;DHT22;3385;48.928;10.330;2022-11-04T06:48:29;7.10;99.90
6696;DHT22;3385;48.928;10.330;2022-11-04T06:50:59;7.10;99.90
6696;DHT22;3385;48.928;10.330;2022-11-04T06:53:26;7.10;99.90
6696;DHT22;3385;48.928;10.330;2022-11-04T06:55:52;7.10;99.90
6696;DHT22;3385;48.928;10.330;2022-11-04T06:58:19;7.10;99.90
6696;DHT22;3385;48.928;10.330;2022-11-04T07:00:50;7.10;99.90
6696;DHT22;3385;48.928;10.330;2022-11-04T07:03:17;7.10;99.90
6696;DHT22;3385;48.928;10.330;2022-11-04T07:05:42;7.10;99.90
6696;DHT22;3385;48.928;10.330;2022-11-04T07:08:08;7.10;99.90
6696;DHT22;3385;48.928;10.330;2022-11-04T07:10:34;7.10;99.90
6696;DHT22;3385;48.928;10.330;2022-11-04T07:13:00;7.10;99.90
6696;DHT22;3385;48.928;10.330;2022-11-04T07:15:25;7.10;99.90
6696;DHT22;3385;48.928;10.330;2022-11-04T07:17:51;7.10;99.90
6696;DHT22;3385;48.928;10.330;2022-11-04T07:20:17;7.10;99.90
6696;DHT22;3385;48.928;10.330;2022-11-04T07:22:43;7.20;99.90
6696;DHT22;3385;48.928;10.330;2022-11-04T07:25:08;7.20;99.90
6696;DHT22;3385;48.928;10.330;2022-11-04T07:27:34;7.20;99.90
6696;DHT22;3385;48.928;10.330;2022-11-04T07:30:00;7.20;99.90
6696;DHT22;3385;48.928;10.330;2022-11-04T07:32:26;7.20;99.90
6696;DHT22;3385;48.928;10.330;2022-11-04T07:34:52;7.30;99.90
6696;DHT22;3385;48.928;10.330;2022-11-04T07:37:17;7.30;99.90
6696;DHT22;3385;48.928;10.330;2022-11-04T07:39:43;7.30;99.90
6696;DHT22;3385;48.928;10.330;2022-11-04T07:42:09;7.30;99.90
6696;DHT22;3385;48.928;10.330;2022-11-04T07:44:35;7.30;99.90
6696;DHT22;3385;48.928;10.330;2022-11-04T07:47:02;7.30;99.90
6696;DHT22;3385;48.928;10.330;2022-11-04T07:49:27;7.30;99.90
6696;DHT22;3385;48.928;10.330;2022-11-04T07:51:54;7.40;99.90
6696;DHT22;3385;48.928;10.330;2022-11-04T07:54:19;7.50;99.90
6696;DHT22;3385;48.928;10.330;2022-11-04T07:56:45;7.50;99.90
6696;DHT22;3385;48.928;10.330;2022-11-04T07:59:11;7.50;99.90
6696;DHT22;3385;48.928;10.330;2022-11-04T08:01:36;7.50;99.90
6696;DHT22;3385;48.928;10.330;2022-11-04T08:04:02;7.50;99.90
6696;DHT22;3385;48.928;10.330;2022-11-04T08:06:29;7.50;99.90
6696;DHT22;3385;48.928;10.330;2022-11-04T08:08:57;7.60;99.90
6696;DHT22;3385;48.928;10.330;2022-11-04T08:11:24;7.60;99.90
6696;DHT22;3385;48.928;10.330;2022-11-04T08:13:53;7.60;99.90
6696;DHT22;3385;48.928;10.330;2022-11-04T08:16:22;7.60;99.90
6696;DHT22;3385;48.928;10.330;2022-11-04T08:18:50;7.60;99.90
6696;DHT22;3385;48.928;10.330;2022-11-04T08:21:19;7.60;99.90
6696;DHT22;3385;48.928;10.330;2022-11-04T08:23:46;7.70;99.90
6696;DHT22;3385;48.928;10.330;2022-11-04T08:26:17;7.80;99.90
6696;DHT22;3385;48.928;10.330;2022-11-04T08:28:43;7.70;99.90
6696;DHT22;3385;48.928;10.330;2022-11-04T08:33:41;7.70;99.90
6696;DHT22;3385;48.928;10.330;2022-11-04T08:36:24;7.70;99.90
6696;DHT22;3385;48.928;10.330;2022-11-04T08:38:51;7.90;99.90
6696;DHT22;3385;48.928;10.330;2022-11-04T08:41:19;7.90;99.90
6696;DHT22;3385;48.928;10.330;2022-11-04T08:43:45;7.90;99.90
6696;DHT22;3385;48.928;10.330;2022-11-04T08:46:12;7.90;99.90
6696;DHT22;3385;48.928;10.330;2022-11-04T08:48:39;8.00;99.90
6696;DHT22;3385;48.928;10.330;2022-11-04T08:51:09;7.90;99.90
6696;DHT22;3385;48.928;10.330;2022-11-04T08:53:35;8.00;99.90
6696;DHT22;3385;48.928;10.330;2022-11-04T08:56:09;8.00;99.90
6696;DHT22;3385;48.928;10.330;2022-11-04T08:58:35;8.00;99.90
6696;DHT22;3385;48.928;10.330;2022-11-04T09:01:03;8.00;99.90
6696;DHT22;3385;48.928;10.330;2022-11-04T09:03:29;8.10;99.90
6696;DHT22;3385;48.928;10.330;2022-11-04T09:05:57;8.10;99.90
6696;DHT22;3385;48.928;10.330;2022-11-04T09:08:22;8.20;99.90
6696;DHT22;3385;48.928;10.330;2022-11-04T09:10:48;8.20;99.90
6696;DHT22;3385;48.928;10.330;2022-11-04T09:13:15;8.20;99.90
6696;DHT22;3385;48.928;10.330;2022-11-04T09:15:41;8.20;99.90
6696;DHT22;3385;48.928;10.330;2022-11-04T09:18:07;8.30;99.90
6696;DHT22;3385;48.928;10.330;2022-11-04T09:20:33;8.30;99.90
6696;DHT22;3385;48.928;10.330;2022-11-04T09:23:03;8.40;99.90
6696;DHT22;3385;48.928;10.330;2022-11-04T09:25:28;8.50;99.90
6696;DHT22;3385;48.928;10.330;2022-11-04T09:27:54;8.50;99.90
6696;DHT22;3385;48.928;10.330;2022-11-04T09:30:20;8.60;99.90
6696;DHT22;3385;48.928;10.330;2022-11-04T09:32:46;8.70;99.90
6696;DHT22;3385;48.928;10.330;2022-11-04T09:35:11;8.70;99.90
6696;DHT22;3385;48.928;10.330;2022-11-04T09:37:37;8.80;99.90
6696;DHT22;3385;48.928;10.330;2022-11-04T09:40:03;8.80;99.90
6696;DHT22;3385;48.928;10.330;2022-11-04T09:45:31;9.00;99.90
6696;DHT22;3385;48.928;10.330;2022-11-04T09:48:02;9.10;99.90
6696;DHT22;3385;48.928;10.330;2022-11-04T09:51:04;9.20;99.90
6696;DHT22;3385;48.928;10.330;2022-11-04T09:56:03;9.40;99.90
6696;DHT22;3385;48.928;10.330;2022-11-04T09:58:35;9.40;99.90
6696;DHT22;3385;48.928;10.330;2022-11-04T10:13:12;9.80;99.90
6696;DHT22;3385;48.928;10.330;2022-11-04T10:16:08;9.90;99.90
6696;DHT22;3385;48.928;10.330;2022-11-04T10:23:49;9.90;99.90
6696;DHT22;3385;48.928;10.330;2022-11-04T10:26:49;10.00;99.90
6696;DHT22;3385;48.928;10.330;2022-11-04T10:29:42;10.00;99.90
6696;DHT22;3385;48.928;10.330;2022-11-04T10:32:20;10.10;99.90
6696;DHT22;3385;48.928;10.330;2022-11-04T10:37:20;10.10;99.90
6696;DHT22;3385;48.928;10.330;2022-11-04T10:39:48;10.20;99.90
6696;DHT22;3385;48.928;10.330;2022-11-04T10:42:17;10.30;99.90
6696;DHT22;3385;48.928;10.330;2022-11-04T10:44:45;10.30;99.90
6696;DHT22;3385;48.928;10.330;2022-11-04T10:47:14;10.40;99.90
6696;DHT22;3385;48.928;10.330;2022-11-04T10:50:01;10.40;99.90
6696;DHT22;3385;48.928;10.330;2022-11-04T10:52:32;10.40;99.90
6696;DHT22;3385;48.928;10.330;2022-11-04T10:54:59;10.40;99.90
6696;DHT22;3385;48.928;10.330;2022-11-04T10:57:25;10.40;99.90
6696;DHT22;3385;48.928;10.330;2022-11-04T11:10:28;10.70;99.90
6696;DHT22;3385;48.928;10.330;2022-11-04T11:13:00;10.80;99.90
6696;DHT22;3385;48.928;10.330;2022-11-04T11:15:33;11.00;99.90
6696;DHT22;3385;48.928;10.330;2022-11-04T11:20:41;11.20;99.90
6696;DHT22;3385;48.928;10.330;2022-11-04T11:25:58;11.50;99.90
6696;DHT22;3385;48.928;10.330;2022-11-04T11:28:25;11.70;99.90
6696;DHT22;3385;48.928;10.330;2022-11-04T11:30:58;11.80;99.90
6696;DHT22;3385;48.928;10.330;2022-11-04T11:38:23;11.90;99.90
6696;DHT22;3385;48.928;10.330;2022-11-04T11:40:51;11.80;99.90
6696;DHT22;3385;48.928;10.330;2022-11-04T11:43:28;11.60;99.90
6696;DHT22;3385;48.928;10.330;2022-11-04T11:45:55;11.70;99.90
6696;DHT22;3385;48.928;10.330;2022-11-04T11:48:42;11.70;99.90
6696;DHT22;3385;48.928;10.330;2022-11-04T11:51:14;11.80;99.90
6696;DHT22;3385;48.928;10.330;2022-11-04T11:54:12;11.70;99.90
6696;DHT22;3385;48.928;10.330;2022-11-04T11:56:41;11.60;99.90
6696;DHT22;3385;48.928;10.330;2022-11-04T11:59:24;11.60;99.90
6696;DHT22;3385;48.928;10.330;2022-11-04T12:02:00;11.60;99.90
6696;DHT22;3385;48.928;10.330;2022-11-04T12:04:28;11.70;99.90
6696;DHT22;3385;48.928;10.330;2022-11-04T12:13:06;11.80;99.90
6696;DHT22;3385;48.928;10.330;2022-11-04T12:22:13;11.90;99.90
6696;DHT22;3385;48.928;10.330;2022-11-04T12:24:33;11.90;99.90
6696;DHT22;3385;48.928;10.330;2022-11-04T12:27:22;11.90;99.90
6696;DHT22;3385;48.928;10.330;2022-11-04T12:30:05;11.90;99.90
6696;DHT22;3385;48.928;10.330;2022-11-04T12:32:40;12.00;99.90
6696;DHT22;3385;48.928;10.330;2022-11-04T12:35:30;11.90;99.90
6696;DHT22;3385;48.928;10.330;2022-11-04T13:00:17;11.90;99.90
6696;DHT22;3385;48.928;10.330;2022-11-04T13:02:53;11.90;99.90
6696;DHT22;3385;48.928;10.330;2022-11-04T13:10:26;12.10;99.90
6696;DHT22;3385;48.928;10.330;2022-11-04T13:12:55;12.10;99.90
6696;DHT22;3385;48.928;10.330;2022-11-04T13:15:26;12.00;99.90
6696;DHT22;3385;48.928;10.330;2022-11-04T13:17:58;12.00;99.90
6696;DHT22;3385;48.928;10.330;2022-11-04T13:20:50;12.00;99.90
6696;DHT22;3385;48.928;10.330;2022-11-04T13:23:27;12.00;99.90
6696;DHT22;3385;48.928;10.330;2022-11-04T13:25:54;12.10;99.90
6696;DHT22;3385;48.928;10.330;2022-11-04T13:28:21;12.00;99.90
6696;DHT22;3385;48.928;10.330;2022-11-04T13:36:43;11.80;99.90
6696;DHT22;3385;48.928;10.330;2022-11-04T13:39:22;11.80;99.90
6696;DHT22;3385;48.928;10.330;2022-11-04T13:42:22;11.70;99.90
6696;DHT22;3385;48.928;10.330;2022-11-04T13:44:52;11.50;99.90
6696;DHT22;3385;48.928;10.330;2022-11-04T13:47:28;11.40;99.90
6696;DHT22;3385;48.928;10.330;2022-11-04T13:49:56;11.40;99.90
6696;DHT22;3385;48.928;10.330;2022-11-04T13:52:31;11.30;99.90
6696;DHT22;3385;48.928;10.330;2022-11-04T13:55:03;11.30;99.90
6696;DHT22;3385;48.928;10.330;2022-11-04T13:57:48;11.30;99.90
6696;DHT22;3385;48.928;10.330;2022-11-04T14:02:45;11.30;99.90
6696;DHT22;3385;48.928;10.330;2022-11-04T14:10:36;11.10;99.90
6696;DHT22;3385;48.928;10.330;2022-11-04T14:16:51;11.10;99.90
6696;DHT22;3385;48.928;10.330;2022-11-04T14:18:52;11.00;99.90
6696;DHT22;3385;48.928;10.330;2022-11-04T14:21:21;11.00;99.90
6696;DHT22;3385;48.928;10.330;2022-11-04T14:23:56;10.90;99.90
6696;DHT22;3385;48.928;10.330;2022-11-04T14:26:44;10.90;99.90
6696;DHT22;3385;48.928;10.330;2022-11-04T14:29:18;10.80;99.90
6696;DHT22;3385;48.928;10.330;2022-11-04T14:31:50;10.70;99.90
6696;DHT22;3385;48.928;10.330;2022-11-04T14:34:31;10.70;99.90
6696;DHT22;3385;48.928;10.330;2022-11-04T14:37:00;10.60;99.90
6696;DHT22;3385;48.928;10.330;2022-11-04T14:39:28;10.50;99.90
6696;DHT22;3385;48.928;10.330;2022-11-04T14:42:00;10.50;99.90
6696;DHT22;3385;48.928;10.330;2022-11-04T14:50:03;10.40;99.90
6696;DHT22;3385;48.928;10.330;2022-11-04T14:57:48;10.30;99.90
6696;DHT22;3385;48.928;10.330;2022-11-04T15:00:36;10.30;99.90
6696;DHT22;3385;48.928;10.330;2022-11-04T15:05:36;10.10;99.90
6696;DHT22;3385;48.928;10.330;2022-11-04T15:08:35;10.10;99.90
6696;DHT22;3385;48.928;10.330;2022-11-04T15:13:37;10.00;99.90
6696;DHT22;3385;48.928;10.330;2022-11-04T15:16:16;9.90;99.90
6696;DHT22;3385;48.928;10.330;2022-11-04T15:18:43;9.90;99.90
6696;DHT22;3385;48.928;10.330;2022-11-04T15:21:09;9.80;99.90
6696;DHT22;3385;48.928;10.330;2022-11-04T15:23:55;9.80;99.90
6696;DHT22;3385;48.928;10.330;2022-11-04T15:26:32;9.80;99.90
6696;DHT22;3385;48.928;10.330;2022-11-04T15:29:00;9.80;99.90
6696;DHT22;3385;48.928;10.330;2022-11-04T15:31:31;9.80;99.90
6696;DHT22;3385;48.928;10.330;2022-11-04T15:34:00;9.80;99.90
6696;DHT22;3385;48.928;10.330;2022-11-04T15:36:30;9.70;99.90
6696;DHT22;3385;48.928;10.330;2022-11-04T15:39:06;9.60;99.90
6696;DHT22;3385;48.928;10.330;2022-11-04T15:41:33;9.60;99.90
6696;DHT22;3385;48.928;10.330;2022-11-04T15:44:30;9.50;99.90
6696;DHT22;3385;48.928;10.330;2022-11-04T15:46:58;9.40;99.90
6696;DHT22;3385;48.928;10.330;2022-11-04T15:49:32;9.30;99.90
6696;DHT22;3385;48.928;10.330;2022-11-04T15:52:15;9.20;99.90
6696;DHT22;3385;48.928;10.330;2022-11-04T15:54:46;9.20;99.90
6696;DHT22;3385;48.928;10.330;2022-11-04T15:57:19;9.10;99.90
6696;DHT22;3385;48.928;10.330;2022-11-04T16:00:26;9.10;99.90
6696;DHT22;3385;48.928;10.330;2022-11-04T16:02:59;9.00;99.90
6696;DHT22;3385;48.928;10.330;2022-11-04T16:05:26;8.90;99.90
6696;DHT22;3385;48.928;10.330;2022-11-04T16:07:54;8.90;99.90
6696;DHT22;3385;48.928;10.330;2022-11-04T16:10:30;8.80;99.90
6696;DHT22;3385;48.928;10.330;2022-11-04T16:15:45;8.70;99.90
6696;DHT22;3385;48.928;10.330;2022-11-04T16:20:58;8.60;99.90
6696;DHT22;3385;48.928;10.330;2022-11-04T16:23:27;8.50;99.90
6696;DHT22;3385;48.928;10.330;2022-11-04T16:26:05;8.40;99.90
6696;DHT22;3385;48.928;10.330;2022-11-04T16:28:36;8.30;99.90
6696;DHT22;3385;48.928;10.330;2022-11-04T16:31:08;8.20;99.90
6696;DHT22;3385;48.928;10.330;2022-11-04T16:33:40;8.20;99.90
6696;DHT22;3385;48.928;10.330;2022-11-04T16:36:11;8.10;99.90
6696;DHT22;3385;48.928;10.330;2022-11-04T16:38:38;8.00;99.90
6696;DHT22;3385;48.928;10.330;2022-11-04T16:41:04;8.00;99.90
6696;DHT22;3385;48.928;10.330;2022-11-04T16:43:29;7.90;99.90
6696;DHT22;3385;48.928;10.330;2022-11-04T16:45:55;7.90;99.90
6696;DHT22;3385;48.928;10.330;2022-11-04T16:48:21;7.80;99.90
6696;DHT22;3385;48.928;10.330;2022-11-04T16:50:49;7.70;99.90
6696;DHT22;3385;48.928;10.330;2022-11-04T16:53:14;7.70;99.90
6696;DHT22;3385;48.928;10.330;2022-11-04T16:55:42;7.70;99.90
6696;DHT22;3385;48.928;10.330;2022-11-04T16:58:16;7.70;99.90
6696;DHT22;3385;48.928;10.330;2022-11-04T17:00:43;7.60;99.90
6696;DHT22;3385;48.928;10.330;2022-11-04T17:03:15;7.70;99.90
6696;DHT22;3385;48.928;10.330;2022-11-04T17:05:47;7.70;99.90
6696;DHT22;3385;48.928;10.330;2022-11-04T17:08:12;7.60;99.90
6696;DHT22;3385;48.928;10.330;2022-11-04T17:10:38;7.60;99.90
6696;DHT22;3385;48.928;10.330;2022-11-04T17:13:04;7.60;99.90
6696;DHT22;3385;48.928;10.330;2022-11-04T17:15:31;7.60;99.90
6696;DHT22;3385;48.928;10.330;2022-11-04T17:17:56;7.60;99.90
6696;DHT22;3385;48.928;10.330;2022-11-04T17:20:22;7.60;99.90
6696;DHT22;3385;48.928;10.330;2022-11-04T17:22:48;7.60;99.90
6696;DHT22;3385;48.928;10.330;2022-11-04T17:25:21;7.50;99.90
6696;DHT22;3385;48.928;10.330;2022-11-04T17:27:48;7.60;99.90
6696;DHT22;3385;48.928;10.330;2022-11-04T17:30:15;7.70;99.90
6696;DHT22;3385;48.928;10.330;2022-11-04T17:32:42;7.70;99.90
6696;DHT22;3385;48.928;10.330;2022-11-04T17:35:09;7.60;99.90
6696;DHT22;3385;48.928;10.330;2022-11-04T17:37:36;7.60;99.90
6696;DHT22;3385;48.928;10.330;2022-11-04T17:40:02;7.60;99.90
6696;DHT22;3385;48.928;10.330;2022-11-04T17:42:28;7.60;99.90
6696;DHT22;3385;48.928;10.330;2022-11-04T17:45:12;7.50;99.90
6696;DHT22;3385;48.928;10.330;2022-11-04T17:47:37;7.50;99.90
6696;DHT22;3385;48.928;10.330;2022-11-04T17:50:04;7.50;99.90
6696;DHT22;3385;48.928;10.330;2022-11-04T17:52:34;7.50;99.90
6696;DHT22;3385;48.928;10.330;2022-11-04T17:55:00;7.60;99.90
6696;DHT22;3385;48.928;10.330;2022-11-04T17:57:26;7.60;99.90
6696;DHT22;3385;48.928;10.330;2022-11-04T17:59:51;7.60;99.90
6696;DHT22;3385;48.928;10.330;2022-11-04T18:02:17;7.60;99.90
6696;DHT22;3385;48.928;10.330;2022-11-04T18:04:44;7.70;99.90
6696;DHT22;3385;48.928;10.330;2022-11-04T18:07:10;7.60;99.90
6696;DHT22;3385;48.928;10.330;2022-11-04T18:09:36;7.70;99.90
6696;DHT22;3385;48.928;10.330;2022-11-04T18:12:07;7.60;99.90
6696;DHT22;3385;48.928;10.330;2022-11-04T18:14:51;7.60;99.90
6696;DHT22;3385;48.928;10.330;2022-11-04T18:17:17;7.60;99.90
6696;DHT22;3385;48.928;10.330;2022-11-04T18:19:43;7.60;99.90
6696;DHT22;3385;48.928;10.330;2022-11-04T18:22:09;7.60;99.90
6696;DHT22;3385;48.928;10.330;2022-11-04T18:24:34;7.60;99.90
6696;DHT22;3385;48.928;10.330;2022-11-04T18:27:00;7.60;99.90
6696;DHT22;3385;48.928;10.330;2022-11-04T18:29:26;7.60;99.90
6696;DHT22;3385;48.928;10.330;2022-11-04T18:31:52;7.60;99.90
6696;DHT22;3385;48.928;10.330;2022-11-04T18:34:18;7.60;99.90
6696;DHT22;3385;48.928;10.330;2022-11-04T18:36:45;7.70;99.90
6696;DHT22;3385;48.928;10.330;2022-11-04T18:39:13;7.70;99.90
6696;DHT22;3385;48.928;10.330;2022-11-04T18:41:39;7.70;99.90
6696;DHT22;3385;48.928;10.330;2022-11-04T18:44:20;7.60;99.90
6696;DHT22;3385;48.928;10.330;2022-11-04T18:46:47;7.60;99.90
6696;DHT22;3385;48.928;10.330;2022-11-04T18:49:14;7.60;99.90
6696;DHT22;3385;48.928;10.330;2022-11-04T18:51:40;7.70;99.90
6696;DHT22;3385;48.928;10.330;2022-11-04T18:54:07;7.60;99.90
6696;DHT22;3385;48.928;10.330;2022-11-04T18:56:33;7.60;99.90
6696;DHT22;3385;48.928;10.330;2022-11-04T18:58:59;7.60;99.90
6696;DHT22;3385;48.928;10.330;2022-11-04T19:01:31;7.60;99.90
6696;DHT22;3385;48.928;10.330;2022-11-04T19:03:59;7.70;99.90